sensor_id;sensor_type;location;lat;lon;timestamp;temperature;humidity
64226;DHT22;50545;56.064;26.178;2023-04-24T00:02:05;11.70;67.50
64226;DHT22;50545;56.064;26.178;2023-04-24T00:04:34;11.70;67.60
64226;DHT22;50545;56.064;26.178;2023-04-24T00:07:01;11.60;67.70
64226;DHT22;50545;56.064;26.178;2023-04-24T00:09:29;11.60;67.80
64226;DHT22;50545;56.064;26.178;2023-04-24T00:11:57;11.60;67.80
64226;DHT22;50545;56.064;26.178;2023-04-24T00:14:24;11.60;67.70
64226;DHT22;50545;56.064;26.178;2023-04-24T00:16:51;11.60;67.60
64226;DHT22;50545;56.064;26.178;2023-04-24T00:19:18;11.50;68.10
64226;DHT22;50545;56.064;26.178;2023-04-24T00:21:48;11.40;68.80
64226;DHT22;50545;56.064;26.178;2023-04-24T00:24:18;11.40;69.20
64226;DHT22;50545;56.064;26.178;2023-04-24T00:26:45;11.30;68.50
64226;DHT22;50545;56.064;26.178;2023-04-24T00:29:13;11.30;69.20
64226;DHT22;50545;56.064;26.178;2023-04-24T00:31:40;11.30;69.30
64226;DHT22;50545;56.064;26.178;2023-04-24T00:34:07;11.30;68.80
64226;DHT22;50545;56.064;26.178;2023-04-24T00:36:35;11.30;68.60
64226;DHT22;50545;56.064;26.178;2023-04-24T00:39:02;11.30;68.20
64226;DHT22;50545;56.064;26.178;2023-04-24T00:41:30;11.30;67.40
64226;DHT22;50545;56.064;26.178;2023-04-24T00:43:57;11.40;67.90
64226;DHT22;50545;56.064;26.178;2023-04-24T00:46:24;11.40;67.80
64226;DHT22;50545;56.064;26.178;2023-04-24T00:48:51;11.40;68.40
64226;DHT22;50545;56.064;26.178;2023-04-24T00:51:19;11.30;68.80
64226;DHT22;50545;56.064;26.178;2023-04-24T00:53:46;11.30;68.00
64226;DHT22;50545;56.064;26.178;2023-04-24T00:56:14;11.30;68.00
64226;DHT22;50545;56.064;26.178;2023-04-24T00:58:42;11.20;68.30
64226;DHT22;50545;56.064;26.178;2023-04-24T01:01:10;11.20;68.50
64226;DHT22;50545;56.064;26.178;2023-04-24T01:03:38;11.20;69.20
64226;DHT22;50545;56.064;26.178;2023-04-24T01:06:07;11.20;68.50
64226;DHT22;50545;56.064;26.178;2023-04-24T01:08:36;11.10;69.00
64226;DHT22;50545;56.064;26.178;2023-04-24T01:11:04;11.10;68.90
64226;DHT22;50545;56.064;26.178;2023-04-24T01:13:32;11.10;69.10
64226;DHT22;50545;56.064;26.178;2023-04-24T01:16:00;11.00;70.30
64226;DHT22;50545;56.064;26.178;2023-04-24T01:18:28;10.90;70.00
64226;DHT22;50545;56.064;26.178;2023-04-24T01:20:59;10.90;69.20
64226;DHT22;50545;56.064;26.178;2023-04-24T01:23:26;10.90;70.40
64226;DHT22;50545;56.064;26.178;2023-04-24T01:25:54;10.90;71.40
64226;DHT22;50545;56.064;26.178;2023-04-24T01:28:21;10.80;70.90
64226;DHT22;50545;56.064;26.178;2023-04-24T01:30:50;10.80;69.70
64226;DHT22;50545;56.064;26.178;2023-04-24T01:33:17;10.80;69.80
64226;DHT22;50545;56.064;26.178;2023-04-24T01:35:45;10.90;69.60
64226;DHT22;50545;56.064;26.178;2023-04-24T01:38:12;10.90;69.40
64226;DHT22;50545;56.064;26.178;2023-04-24T01:40:39;10.90;69.40
64226;DHT22;50545;56.064;26.178;2023-04-24T01:43:07;10.90;69.80
64226;DHT22;50545;56.064;26.178;2023-04-24T01:45:34;10.90;69.10
64226;DHT22;50545;56.064;26.178;2023-04-24T01:48:01;10.90;69.30
64226;DHT22;50545;56.064;26.178;2023-04-24T01:50:29;10.90;70.10
64226;DHT22;50545;56.064;26.178;2023-04-24T01:52:57;10.90;69.00
64226;DHT22;50545;56.064;26.178;2023-04-24T01:55:24;10.90;70.00
64226;DHT22;50545;56.064;26.178;2023-04-24T01:57:54;10.90;69.30
64226;DHT22;50545;56.064;26.178;2023-04-24T02:00:22;10.80;69.80
64226;DHT22;50545;56.064;26.178;2023-04-24T02:02:50;10.80;70.30
64226;DHT22;50545;56.064;26.178;2023-04-24T02:05:17;10.70;70.20
64226;DHT22;50545;56.064;26.178;2023-04-24T02:07:44;10.70;70.20
64226;DHT22;50545;56.064;26.178;2023-04-24T02:10:12;10.70;70.40
64226;DHT22;50545;56.064;26.178;2023-04-24T02:12:39;10.60;71.30
64226;DHT22;50545;56.064;26.178;2023-04-24T02:15:06;10.60;71.60
64226;DHT22;50545;56.064;26.178;2023-04-24T02:17:33;10.50;71.00
64226;DHT22;50545;56.064;26.178;2023-04-24T02:20:01;10.50;71.90
64226;DHT22;50545;56.064;26.178;2023-04-24T02:22:28;10.50;72.20
64226;DHT22;50545;56.064;26.178;2023-04-24T02:24:55;10.40;71.00
64226;DHT22;50545;56.064;26.178;2023-04-24T02:27:22;10.40;72.10
64226;DHT22;50545;56.064;26.178;2023-04-24T02:29:49;10.40;72.20
64226;DHT22;50545;56.064;26.178;2023-04-24T02:32:17;10.30;72.70
64226;DHT22;50545;56.064;26.178;2023-04-24T02:34:44;10.30;73.20
64226;DHT22;50545;56.064;26.178;2023-04-24T02:37:11;10.30;72.60
64226;DHT22;50545;56.064;26.178;2023-04-24T02:39:39;10.30;73.20
64226;DHT22;50545;56.064;26.178;2023-04-24T02:42:06;10.30;73.30
64226;DHT22;50545;56.064;26.178;2023-04-24T02:44:34;10.20;73.50
64226;DHT22;50545;56.064;26.178;2023-04-24T02:47:02;10.20;74.10
64226;DHT22;50545;56.064;26.178;2023-04-24T02:49:30;10.20;73.30
64226;DHT22;50545;56.064;26.178;2023-04-24T02:51:57;10.20;73.80
64226;DHT22;50545;56.064;26.178;2023-04-24T02:54:24;10.20;74.20
64226;DHT22;50545;56.064;26.178;2023-04-24T02:56:52;10.20;75.10
64226;DHT22;50545;56.064;26.178;2023-04-24T02:59:19;10.10;75.70
64226;DHT22;50545;56.064;26.178;2023-04-24T03:01:46;10.00;76.00
64226;DHT22;50545;56.064;26.178;2023-04-24T03:04:14;10.00;75.80
64226;DHT22;50545;56.064;26.178;2023-04-24T03:06:42;9.90;77.50
64226;DHT22;50545;56.064;26.178;2023-04-24T03:09:09;9.90;76.20
64226;DHT22;50545;56.064;26.178;2023-04-24T03:11:37;9.90;77.00
64226;DHT22;50545;56.064;26.178;2023-04-24T03:14:04;9.90;77.20
64226;DHT22;50545;56.064;26.178;2023-04-24T03:16:31;9.90;76.60
64226;DHT22;50545;56.064;26.178;2023-04-24T03:19:00;9.90;77.80
64226;DHT22;50545;56.064;26.178;2023-04-24T03:21:27;9.90;77.50
64226;DHT22;50545;56.064;26.178;2023-04-24T03:23:54;9.90;78.60
64226;DHT22;50545;56.064;26.178;2023-04-24T03:26:22;9.90;78.00
64226;DHT22;50545;56.064;26.178;2023-04-24T03:28:49;10.00;77.80
64226;DHT22;50545;56.064;26.178;2023-04-24T03:31:16;10.00;77.30
64226;DHT22;50545;56.064;26.178;2023-04-24T03:33:43;10.00;78.10
64226;DHT22;50545;56.064;26.178;2023-04-24T03:36:11;10.10;76.60
64226;DHT22;50545;56.064;26.178;2023-04-24T03:38:38;10.10;78.10
64226;DHT22;50545;56.064;26.178;2023-04-24T03:41:05;10.10;77.00
64226;DHT22;50545;56.064;26.178;2023-04-24T03:43:32;10.10;76.50
64226;DHT22;50545;56.064;26.178;2023-04-24T03:46:01;10.20;77.30
64226;DHT22;50545;56.064;26.178;2023-04-24T03:48:30;10.30;76.50
64226;DHT22;50545;56.064;26.178;2023-04-24T03:50:57;10.30;76.40
64226;DHT22;50545;56.064;26.178;2023-04-24T03:53:24;10.40;75.40
64226;DHT22;50545;56.064;26.178;2023-04-24T03:55:52;10.40;75.50
64226;DHT22;50545;56.064;26.178;2023-04-24T03:58:19;10.50;75.50
64226;DHT22;50545;56.064;26.178;2023-04-24T04:00:46;10.50;74.90
64226;DHT22;50545;56.064;26.178;2023-04-24T04:03:14;10.60;75.60
64226;DHT22;50545;56.064;26.178;2023-04-24T04:05:42;10.60;74.40
64226;DHT22;50545;56.064;26.178;2023-04-24T04:08:09;10.70;75.10
64226;DHT22;50545;56.064;26.178;2023-04-24T04:10:37;10.70;73.60
64226;DHT22;50545;56.064;26.178;2023-04-24T04:13:04;10.80;73.60
64226;DHT22;50545;56.064;26.178;2023-04-24T04:15:33;10.80;74.30
64226;DHT22;50545;56.064;26.178;2023-04-24T04:18:00;10.90;74.60
64226;DHT22;50545;56.064;26.178;2023-04-24T04:20:27;10.90;72.30
64226;DHT22;50545;56.064;26.178;2023-04-24T04:22:54;11.00;74.70
64226;DHT22;50545;56.064;26.178;2023-04-24T04:25:22;11.00;75.40
64226;DHT22;50545;56.064;26.178;2023-04-24T04:27:50;11.10;74.00
64226;DHT22;50545;56.064;26.178;2023-04-24T04:30:18;11.10;73.30
64226;DHT22;50545;56.064;26.178;2023-04-24T04:32:45;11.20;72.90
64226;DHT22;50545;56.064;26.178;2023-04-24T04:35:12;11.30;72.80
64226;DHT22;50545;56.064;26.178;2023-04-24T04:37:40;11.30;71.90
64226;DHT22;50545;56.064;26.178;2023-04-24T04:40:08;11.40;72.60
64226;DHT22;50545;56.064;26.178;2023-04-24T04:42:38;11.50;70.30
64226;DHT22;50545;56.064;26.178;2023-04-24T04:45:10;11.60;70.80
64226;DHT22;50545;56.064;26.178;2023-04-24T04:47:38;11.70;68.60
64226;DHT22;50545;56.064;26.178;2023-04-24T04:50:07;11.80;71.70
64226;DHT22;50545;56.064;26.178;2023-04-24T04:52:34;11.80;70.40
64226;DHT22;50545;56.064;26.178;2023-04-24T04:55:02;11.90;68.90
64226;DHT22;50545;56.064;26.178;2023-04-24T04:57:29;12.00;70.00
64226;DHT22;50545;56.064;26.178;2023-04-24T04:59:57;12.00;70.80
64226;DHT22;50545;56.064;26.178;2023-04-24T05:02:24;12.10;66.20
64226;DHT22;50545;56.064;26.178;2023-04-24T05:04:51;12.20;67.20
64226;DHT22;50545;56.064;26.178;2023-04-24T05:07:19;12.30;68.00
64226;DHT22;50545;56.064;26.178;2023-04-24T05:09:46;12.30;69.10
64226;DHT22;50545;56.064;26.178;2023-04-24T05:12:13;12.40;69.60
64226;DHT22;50545;56.064;26.178;2023-04-24T05:14:41;12.50;67.80
64226;DHT22;50545;56.064;26.178;2023-04-24T05:17:08;12.50;67.20
64226;DHT22;50545;56.064;26.178;2023-04-24T05:19:36;12.60;66.20
64226;DHT22;50545;56.064;26.178;2023-04-24T05:22:04;12.70;68.10
64226;DHT22;50545;56.064;26.178;2023-04-24T05:24:34;12.80;65.80
64226;DHT22;50545;56.064;26.178;2023-04-24T05:27:02;12.90;64.90
64226;DHT22;50545;56.064;26.178;2023-04-24T05:29:29;13.00;64.00
64226;DHT22;50545;56.064;26.178;2023-04-24T05:31:58;13.10;62.50
64226;DHT22;50545;56.064;26.178;2023-04-24T05:34:25;13.10;65.40
64226;DHT22;50545;56.064;26.178;2023-04-24T05:36:53;13.20;66.00
64226;DHT22;50545;56.064;26.178;2023-04-24T05:39:20;13.30;62.80
64226;DHT22;50545;56.064;26.178;2023-04-24T05:41:47;13.40;61.80
64226;DHT22;50545;56.064;26.178;2023-04-24T05:44:14;13.50;61.30
64226;DHT22;50545;56.064;26.178;2023-04-24T05:46:42;13.60;61.70
64226;DHT22;50545;56.064;26.178;2023-04-24T05:49:09;13.70;61.70
64226;DHT22;50545;56.064;26.178;2023-04-24T05:51:36;13.70;63.00
64226;DHT22;50545;56.064;26.178;2023-04-24T05:54:03;13.80;62.00
64226;DHT22;50545;56.064;26.178;2023-04-24T05:56:31;13.90;60.50
64226;DHT22;50545;56.064;26.178;2023-04-24T05:58:58;14.00;61.10
64226;DHT22;50545;56.064;26.178;2023-04-24T06:01:25;14.10;61.90
64226;DHT22;50545;56.064;26.178;2023-04-24T06:03:52;14.10;60.10
64226;DHT22;50545;56.064;26.178;2023-04-24T06:06:20;14.20;61.30
64226;DHT22;50545;56.064;26.178;2023-04-24T06:08:47;14.40;58.60
64226;DHT22;50545;56.064;26.178;2023-04-24T06:11:15;14.50;61.60
64226;DHT22;50545;56.064;26.178;2023-04-24T06:13:42;14.60;60.40
64226;DHT22;50545;56.064;26.178;2023-04-24T06:16:09;14.70;57.40
64226;DHT22;50545;56.064;26.178;2023-04-24T06:18:37;14.80;57.40
64226;DHT22;50545;56.064;26.178;2023-04-24T06:21:04;14.90;56.90
64226;DHT22;50545;56.064;26.178;2023-04-24T06:23:32;15.00;57.60
64226;DHT22;50545;56.064;26.178;2023-04-24T06:26:01;15.10;58.60
64226;DHT22;50545;56.064;26.178;2023-04-24T06:28:28;15.10;58.40
64226;DHT22;50545;56.064;26.178;2023-04-24T06:30:55;15.20;58.20
64226;DHT22;50545;56.064;26.178;2023-04-24T06:33:22;15.30;55.60
64226;DHT22;50545;56.064;26.178;2023-04-24T06:35:50;15.40;57.80
64226;DHT22;50545;56.064;26.178;2023-04-24T06:38:17;15.50;58.30
64226;DHT22;50545;56.064;26.178;2023-04-24T06:40:44;15.60;55.00
64226;DHT22;50545;56.064;26.178;2023-04-24T06:43:12;15.70;53.30
64226;DHT22;50545;56.064;26.178;2023-04-24T06:45:39;15.80;53.00
64226;DHT22;50545;56.064;26.178;2023-04-24T06:48:06;15.90;56.60
64226;DHT22;50545;56.064;26.178;2023-04-24T06:50:34;16.00;53.30
64226;DHT22;50545;56.064;26.178;2023-04-24T06:53:01;16.10;56.10
64226;DHT22;50545;56.064;26.178;2023-04-24T06:55:28;16.20;53.60
64226;DHT22;50545;56.064;26.178;2023-04-24T06:57:55;16.30;53.00
64226;DHT22;50545;56.064;26.178;2023-04-24T07:00:22;16.40;56.80
64226;DHT22;50545;56.064;26.178;2023-04-24T07:02:51;16.50;53.20
64226;DHT22;50545;56.064;26.178;2023-04-24T07:05:18;16.60;51.40
64226;DHT22;50545;56.064;26.178;2023-04-24T07:07:47;16.70;51.20
64226;DHT22;50545;56.064;26.178;2023-04-24T07:10:15;16.80;51.00
64226;DHT22;50545;56.064;26.178;2023-04-24T07:12:43;16.90;50.10
64226;DHT22;50545;56.064;26.178;2023-04-24T07:15:10;17.00;50.80
64226;DHT22;50545;56.064;26.178;2023-04-24T07:17:37;17.10;48.90
64226;DHT22;50545;56.064;26.178;2023-04-24T07:20:05;17.20;49.30
64226;DHT22;50545;56.064;26.178;2023-04-24T07:22:37;17.30;50.70
64226;DHT22;50545;56.064;26.178;2023-04-24T07:25:05;17.40;49.70
64226;DHT22;50545;56.064;26.178;2023-04-24T07:27:32;17.50;51.70
64226;DHT22;50545;56.064;26.178;2023-04-24T07:29:59;17.60;49.00
64226;DHT22;50545;56.064;26.178;2023-04-24T07:32:27;17.70;49.30
64226;DHT22;50545;56.064;26.178;2023-04-24T07:34:54;17.80;47.00
64226;DHT22;50545;56.064;26.178;2023-04-24T07:37:22;17.80;47.60
64226;DHT22;50545;56.064;26.178;2023-04-24T07:39:50;17.90;49.70
64226;DHT22;50545;56.064;26.178;2023-04-24T07:42:17;18.00;49.10
64226;DHT22;50545;56.064;26.178;2023-04-24T07:44:44;18.10;49.10
64226;DHT22;50545;56.064;26.178;2023-04-24T07:47:13;18.20;47.80
64226;DHT22;50545;56.064;26.178;2023-04-24T07:49:43;18.20;47.20
64226;DHT22;50545;56.064;26.178;2023-04-24T07:52:11;18.30;48.20
64226;DHT22;50545;56.064;26.178;2023-04-24T07:54:38;18.50;46.90
64226;DHT22;50545;56.064;26.178;2023-04-24T07:57:05;18.60;49.60
64226;DHT22;50545;56.064;26.178;2023-04-24T07:59:34;18.80;45.60
64226;DHT22;50545;56.064;26.178;2023-04-24T08:02:01;18.90;49.60
64226;DHT22;50545;56.064;26.178;2023-04-24T08:04:28;19.00;45.00
64226;DHT22;50545;56.064;26.178;2023-04-24T08:06:56;19.20;45.80
64226;DHT22;50545;56.064;26.178;2023-04-24T08:09:23;19.30;44.10
64226;DHT22;50545;56.064;26.178;2023-04-24T08:11:53;19.30;47.10
64226;DHT22;50545;56.064;26.178;2023-04-24T08:14:20;19.50;51.60
64226;DHT22;50545;56.064;26.178;2023-04-24T08:16:47;19.60;47.10
64226;DHT22;50545;56.064;26.178;2023-04-24T08:19:14;19.80;43.70
64226;DHT22;50545;56.064;26.178;2023-04-24T08:21:42;19.90;46.30
64226;DHT22;50545;56.064;26.178;2023-04-24T08:24:09;20.00;44.10
64226;DHT22;50545;56.064;26.178;2023-04-24T08:26:36;20.10;47.00
64226;DHT22;50545;56.064;26.178;2023-04-24T08:29:04;20.10;42.00
64226;DHT22;50545;56.064;26.178;2023-04-24T08:31:31;20.10;43.90
64226;DHT22;50545;56.064;26.178;2023-04-24T08:33:59;20.10;40.90
64226;DHT22;50545;56.064;26.178;2023-04-24T08:36:27;20.10;42.30
64226;DHT22;50545;56.064;26.178;2023-04-24T08:39:09;20.20;40.70
64226;DHT22;50545;56.064;26.178;2023-04-24T08:41:37;20.20;42.80
64226;DHT22;50545;56.064;26.178;2023-04-24T08:44:05;20.30;40.90
64226;DHT22;50545;56.064;26.178;2023-04-24T08:46:37;20.30;41.80
64226;DHT22;50545;56.064;26.178;2023-04-24T08:49:04;20.40;40.10
64226;DHT22;50545;56.064;26.178;2023-04-24T08:51:31;20.40;42.20
64226;DHT22;50545;56.064;26.178;2023-04-24T08:53:59;20.50;41.80
64226;DHT22;50545;56.064;26.178;2023-04-24T08:56:28;20.60;44.00
64226;DHT22;50545;56.064;26.178;2023-04-24T08:58:57;20.70;40.80
64226;DHT22;50545;56.064;26.178;2023-04-24T09:01:25;20.70;43.30
64226;DHT22;50545;56.064;26.178;2023-04-24T09:03:54;20.80;40.60
64226;DHT22;50545;56.064;26.178;2023-04-24T09:06:23;20.90;38.70
64226;DHT22;50545;56.064;26.178;2023-04-24T09:08:53;21.00;39.90
64226;DHT22;50545;56.064;26.178;2023-04-24T09:11:21;21.00;37.10
64226;DHT22;50545;56.064;26.178;2023-04-24T09:13:50;20.90;36.90
64226;DHT22;50545;56.064;26.178;2023-04-24T09:16:18;20.90;37.00
64226;DHT22;50545;56.064;26.178;2023-04-24T09:18:46;20.90;37.00
64226;DHT22;50545;56.064;26.178;2023-04-24T09:21:13;20.90;39.30
64226;DHT22;50545;56.064;26.178;2023-04-24T09:23:41;21.00;35.50
64226;DHT22;50545;56.064;26.178;2023-04-24T09:26:09;20.90;35.80
64226;DHT22;50545;56.064;26.178;2023-04-24T09:28:38;20.90;35.80
64226;DHT22;50545;56.064;26.178;2023-04-24T09:31:14;20.80;36.90
64226;DHT22;50545;56.064;26.178;2023-04-24T09:34:03;20.70;35.80
64226;DHT22;50545;56.064;26.178;2023-04-24T09:36:38;20.70;35.20
64226;DHT22;50545;56.064;26.178;2023-04-24T09:39:07;20.60;35.80
64226;DHT22;50545;56.064;26.178;2023-04-24T09:41:35;20.70;35.80
64226;DHT22;50545;56.064;26.178;2023-04-24T09:44:21;20.80;36.00
64226;DHT22;50545;56.064;26.178;2023-04-24T09:49:28;21.10;35.70
64226;DHT22;50545;56.064;26.178;2023-04-24T09:52:22;21.20;37.80
64226;DHT22;50545;56.064;26.178;2023-04-24T09:54:53;21.40;34.50
64226;DHT22;50545;56.064;26.178;2023-04-24T09:57:21;21.40;36.40
64226;DHT22;50545;56.064;26.178;2023-04-24T09:59:48;21.50;36.80
64226;DHT22;50545;56.064;26.178;2023-04-24T10:02:19;21.50;35.80
64226;DHT22;50545;56.064;26.178;2023-04-24T10:05:00;21.80;38.40
64226;DHT22;50545;56.064;26.178;2023-04-24T10:07:27;22.10;39.00
64226;DHT22;50545;56.064;26.178;2023-04-24T10:09:55;22.10;37.60
64226;DHT22;50545;56.064;26.178;2023-04-24T10:12:23;22.20;34.90
64226;DHT22;50545;56.064;26.178;2023-04-24T10:14:52;22.30;35.30
64226;DHT22;50545;56.064;26.178;2023-04-24T10:17:20;22.40;34.70
64226;DHT22;50545;56.064;26.178;2023-04-24T10:19:48;22.60;36.00
64226;DHT22;50545;56.064;26.178;2023-04-24T10:22:17;22.60;38.40
64226;DHT22;50545;56.064;26.178;2023-04-24T10:24:45;22.60;34.30
64226;DHT22;50545;56.064;26.178;2023-04-24T10:27:15;22.80;38.90
64226;DHT22;50545;56.064;26.178;2023-04-24T10:29:43;22.60;36.30
64226;DHT22;50545;56.064;26.178;2023-04-24T10:32:11;22.30;35.70
64226;DHT22;50545;56.064;26.178;2023-04-24T10:34:39;22.10;35.50
64226;DHT22;50545;56.064;26.178;2023-04-24T10:37:06;22.10;39.60
64226;DHT22;50545;56.064;26.178;2023-04-24T10:39:33;22.10;38.10
64226;DHT22;50545;56.064;26.178;2023-04-24T10:42:02;22.20;39.80
64226;DHT22;50545;56.064;26.178;2023-04-24T10:44:42;22.30;36.20
64226;DHT22;50545;56.064;26.178;2023-04-24T10:47:14;22.30;34.60
64226;DHT22;50545;56.064;26.178;2023-04-24T10:49:42;22.30;35.00
64226;DHT22;50545;56.064;26.178;2023-04-24T10:52:09;22.40;36.40
64226;DHT22;50545;56.064;26.178;2023-04-24T10:59:48;23.00;34.10
64226;DHT22;50545;56.064;26.178;2023-04-24T11:02:17;22.80;34.70
64226;DHT22;50545;56.064;26.178;2023-04-24T11:04:45;22.60;35.10
64226;DHT22;50545;56.064;26.178;2023-04-24T11:07:13;22.30;37.00
64226;DHT22;50545;56.064;26.178;2023-04-24T11:09:42;22.60;38.30
64226;DHT22;50545;56.064;26.178;2023-04-24T11:12:11;22.60;34.60
64226;DHT22;50545;56.064;26.178;2023-04-24T11:14:59;22.90;38.10
64226;DHT22;50545;56.064;26.178;2023-04-24T11:17:32;22.90;34.10
64226;DHT22;50545;56.064;26.178;2023-04-24T11:20:05;22.80;34.00
64226;DHT22;50545;56.064;26.178;2023-04-24T11:22:54;22.50;33.50
64226;DHT22;50545;56.064;26.178;2023-04-24T11:25:22;22.20;36.20
64226;DHT22;50545;56.064;26.178;2023-04-24T11:27:50;21.90;38.90
64226;DHT22;50545;56.064;26.178;2023-04-24T11:30:29;21.80;36.90
64226;DHT22;50545;56.064;26.178;2023-04-24T11:33:04;21.70;36.80
64226;DHT22;50545;56.064;26.178;2023-04-24T11:35:39;22.00;38.40
64226;DHT22;50545;56.064;26.178;2023-04-24T11:38:07;22.00;34.90
64226;DHT22;50545;56.064;26.178;2023-04-24T11:40:38;21.90;35.60
64226;DHT22;50545;56.064;26.178;2023-04-24T11:43:06;22.20;37.50
64226;DHT22;50545;56.064;26.178;2023-04-24T11:45:34;22.40;36.10
64226;DHT22;50545;56.064;26.178;2023-04-24T11:48:03;22.20;34.20
64226;DHT22;50545;56.064;26.178;2023-04-24T11:50:30;22.00;36.10
64226;DHT22;50545;56.064;26.178;2023-04-24T11:52:57;21.70;37.60
64226;DHT22;50545;56.064;26.178;2023-04-24T11:55:28;21.30;36.10
64226;DHT22;50545;56.064;26.178;2023-04-24T11:57:57;21.10;36.60
64226;DHT22;50545;56.064;26.178;2023-04-24T12:00:28;21.50;37.60
64226;DHT22;50545;56.064;26.178;2023-04-24T12:03:09;21.70;34.90
64226;DHT22;50545;56.064;26.178;2023-04-24T12:05:37;21.50;35.30
64226;DHT22;50545;56.064;26.178;2023-04-24T12:08:06;21.70;39.00
64226;DHT22;50545;56.064;26.178;2023-04-24T12:10:33;22.10;38.60
64226;DHT22;50545;56.064;26.178;2023-04-24T12:13:01;22.50;35.70
64226;DHT22;50545;56.064;26.178;2023-04-24T12:15:29;23.00;34.70
64226;DHT22;50545;56.064;26.178;2023-04-24T12:17:56;23.00;34.90
64226;DHT22;50545;56.064;26.178;2023-04-24T12:20:26;22.80;35.30
64226;DHT22;50545;56.064;26.178;2023-04-24T12:22:58;22.90;39.70
64226;DHT22;50545;56.064;26.178;2023-04-24T12:25:27;23.00;35.40
64226;DHT22;50545;56.064;26.178;2023-04-24T12:28:12;22.70;33.60
64226;DHT22;50545;56.064;26.178;2023-04-24T12:30:57;22.40;37.30
64226;DHT22;50545;56.064;26.178;2023-04-24T12:33:27;22.30;40.20
64226;DHT22;50545;56.064;26.178;2023-04-24T12:35:54;22.70;41.60
64226;DHT22;50545;56.064;26.178;2023-04-24T12:38:23;23.30;39.70
64226;DHT22;50545;56.064;26.178;2023-04-24T12:43:34;24.20;32.40
64226;DHT22;50545;56.064;26.178;2023-04-24T12:46:02;24.30;34.70
64226;DHT22;50545;56.064;26.178;2023-04-24T12:48:30;24.70;37.40
64226;DHT22;50545;56.064;26.178;2023-04-24T12:50:58;25.20;38.20
64226;DHT22;50545;56.064;26.178;2023-04-24T12:53:28;25.50;32.90
64226;DHT22;50545;56.064;26.178;2023-04-24T12:55:56;25.40;33.10
64226;DHT22;50545;56.064;26.178;2023-04-24T12:58:24;25.40;30.30
64226;DHT22;50545;56.064;26.178;2023-04-24T13:00:51;25.60;34.30
64226;DHT22;50545;56.064;26.178;2023-04-24T13:03:18;25.80;31.40
64226;DHT22;50545;56.064;26.178;2023-04-24T13:05:47;25.80;32.40
64226;DHT22;50545;56.064;26.178;2023-04-24T13:08:14;26.10;32.20
64226;DHT22;50545;56.064;26.178;2023-04-24T13:10:41;26.30;32.40
64226;DHT22;50545;56.064;26.178;2023-04-24T13:13:08;26.30;31.60
64226;DHT22;50545;56.064;26.178;2023-04-24T13:15:35;25.70;29.40
64226;DHT22;50545;56.064;26.178;2023-04-24T13:18:03;25.50;31.30
64226;DHT22;50545;56.064;26.178;2023-04-24T13:20:30;25.70;32.40
64226;DHT22;50545;56.064;26.178;2023-04-24T13:22:57;25.90;31.00
64226;DHT22;50545;56.064;26.178;2023-04-24T13:25:24;26.00;29.60
64226;DHT22;50545;56.064;26.178;2023-04-24T13:27:52;25.90;31.10
64226;DHT22;50545;56.064;26.178;2023-04-24T13:30:19;26.20;31.80
64226;DHT22;50545;56.064;26.178;2023-04-24T13:32:46;25.50;29.50
64226;DHT22;50545;56.064;26.178;2023-04-24T13:35:13;25.40;30.10
64226;DHT22;50545;56.064;26.178;2023-04-24T13:37:40;25.50;34.50
64226;DHT22;50545;56.064;26.178;2023-04-24T13:40:08;25.80;32.30
64226;DHT22;50545;56.064;26.178;2023-04-24T13:42:35;26.10;32.10
64226;DHT22;50545;56.064;26.178;2023-04-24T13:45:03;26.30;29.10
64226;DHT22;50545;56.064;26.178;2023-04-24T13:47:50;26.30;29.30
64226;DHT22;50545;56.064;26.178;2023-04-24T13:50:18;26.30;29.50
64226;DHT22;50545;56.064;26.178;2023-04-24T13:52:46;26.70;30.10
64226;DHT22;50545;56.064;26.178;2023-04-24T13:55:13;27.30;29.80
64226;DHT22;50545;56.064;26.178;2023-04-24T13:57:40;27.60;29.80
64226;DHT22;50545;56.064;26.178;2023-04-24T14:00:08;27.80;29.40
64226;DHT22;50545;56.064;26.178;2023-04-24T14:02:37;27.50;28.90
64226;DHT22;50545;56.064;26.178;2023-04-24T14:05:05;27.50;31.50
64226;DHT22;50545;56.064;26.178;2023-04-24T14:07:33;27.40;29.80
64226;DHT22;50545;56.064;26.178;2023-04-24T14:10:00;27.20;30.80
64226;DHT22;50545;56.064;26.178;2023-04-24T14:12:27;27.30;32.60
64226;DHT22;50545;56.064;26.178;2023-04-24T14:14:55;27.20;29.80
64226;DHT22;50545;56.064;26.178;2023-04-24T14:17:22;27.00;30.50
64226;DHT22;50545;56.064;26.178;2023-04-24T14:19:49;26.70;31.60
64226;DHT22;50545;56.064;26.178;2023-04-24T14:22:18;26.40;31.40
64226;DHT22;50545;56.064;26.178;2023-04-24T14:24:45;26.10;32.60
64226;DHT22;50545;56.064;26.178;2023-04-24T14:27:12;25.70;31.00
64226;DHT22;50545;56.064;26.178;2023-04-24T14:29:39;25.60;33.10
64226;DHT22;50545;56.064;26.178;2023-04-24T14:32:07;25.70;29.60
64226;DHT22;50545;56.064;26.178;2023-04-24T14:34:35;25.50;32.20
64226;DHT22;50545;56.064;26.178;2023-04-24T14:37:03;25.30;32.00
64226;DHT22;50545;56.064;26.178;2023-04-24T14:39:30;24.90;32.70
64226;DHT22;50545;56.064;26.178;2023-04-24T14:41:57;24.70;34.00
64226;DHT22;50545;56.064;26.178;2023-04-24T14:44:24;24.60;33.40
64226;DHT22;50545;56.064;26.178;2023-04-24T14:46:51;24.80;34.60
64226;DHT22;50545;56.064;26.178;2023-04-24T14:49:19;25.00;33.90
64226;DHT22;50545;56.064;26.178;2023-04-24T14:51:46;25.20;32.80
64226;DHT22;50545;56.064;26.178;2023-04-24T14:54:13;25.30;31.60
64226;DHT22;50545;56.064;26.178;2023-04-24T14:56:40;25.30;32.50
64226;DHT22;50545;56.064;26.178;2023-04-24T14:59:07;25.40;32.10
64226;DHT22;50545;56.064;26.178;2023-04-24T15:01:35;25.60;33.70
64226;DHT22;50545;56.064;26.178;2023-04-24T15:04:02;25.90;32.30
64226;DHT22;50545;56.064;26.178;2023-04-24T15:06:30;25.90;31.30
64226;DHT22;50545;56.064;26.178;2023-04-24T15:08:58;25.90;29.70
64226;DHT22;50545;56.064;26.178;2023-04-24T15:11:25;25.50;29.90
64226;DHT22;50545;56.064;26.178;2023-04-24T15:13:53;25.00;30.00
64226;DHT22;50545;56.064;26.178;2023-04-24T15:16:20;24.40;32.10
64226;DHT22;50545;56.064;26.178;2023-04-24T15:18:47;24.20;31.50
64226;DHT22;50545;56.064;26.178;2023-04-24T15:21:14;24.30;34.90
64226;DHT22;50545;56.064;26.178;2023-04-24T15:23:41;24.50;34.30
64226;DHT22;50545;56.064;26.178;2023-04-24T15:26:09;25.00;34.00
64226;DHT22;50545;56.064;26.178;2023-04-24T15:28:36;25.40;30.70
64226;DHT22;50545;56.064;26.178;2023-04-24T15:31:03;25.90;32.80
64226;DHT22;50545;56.064;26.178;2023-04-24T15:33:30;26.20;31.80
64226;DHT22;50545;56.064;26.178;2023-04-24T15:35:57;26.30;31.50